LavenderCAM.net
Leatherhead Weather
 
 





Member of StrikeStar EU

Aviation weather for

London Heathrow (EGLL) and London Gatwick (EGKK)



London Heathrow (EGLL) METAR / Surface Actual
London / Heathrow Airport, United Kingdom (EGLL) 51-29N 000-27W 0M
May 26, 2018 - 03:20 AM EDT / 2018.05.26 0720 UTC
Wind: from the NNE (020 degrees) at 6 MPH (5 KT) (direction variable):0
Visibility: 1 mile(s):0
Sky conditions: overcast
Weather: light rain, drizzle
Temperature: 59 F (15 C)
Dew Point: 57 F (14 C)
Relative Humidity: 93%
Pressure (altimeter): 30.12 in. Hg (1020 hPa)
ob: EGLL 260720Z AUTO 02005KT 350V060 2600 -RADZ OVC006 15/14 Q1020 REDZ
cycle: 7
London Heathrow (EGLL) TAF / Forecast
2018/05/26 06:21
TAF EGLL 260504Z 2606/2712 02006KT 2500 HZ BKN006 
      TEMPO 2606/2609 BKN004 PROB30 
      TEMPO 2606/2610 +SHRA 
      BECMG 2609/2612 08012KT 9999 NSW SCT020 PROB40 
      TEMPO 2620/2708 08015G25KT 3000 +TSRA BKN014 BKN048CB 
      BECMG 2708/2711 02006KT


London Gatwick (EGKK) METAR / Surface Actual
London / Gatwick Airport, United Kingdom (EGKK) 51-09N 000-11W 0M
May 26, 2018 - 03:20 AM EDT / 2018.05.26 0720 UTC
Wind: from the NNE (030 degrees) at 8 MPH (7 KT) (direction variable):0
Visibility: 2 mile(s):0
Sky conditions: partly cloudy
Weather: haze
Temperature: 60 F (16 C)
Dew Point: 57 F (14 C)
Relative Humidity: 87%
Pressure (altimeter): 30.06 in. Hg (1018 hPa)
ob: EGKK 260720Z 03007KT 350V110 3700 HZ SCT009 SCT046 16/14 Q1018
cycle: 7
London Gatwick (EGKK) TAF / Forecast
2018/05/26 06:21
TAF EGKK 260455Z 2606/2712 04010KT 2000 HZ BKN005 PROB30 2606/2611 +SHRA BKN003 BKN040CB 
      BECMG 2608/2611 9999 NSW SCT025 PROB40 
      TEMPO 2618/2707 06015G25KT 4000 +TSRA BKN014 BKN040CB 
      BECMG 2706/2709 12008KT